Time;durP1;ratioP1;P1;durP2;ratioP2;P2;SDS_P1;SDS_P2;PMS_P1;PMS_P2;Temp;Humidity;BMP_temperature;BMP_pressure;BME280_temperature;BME280_humidity;BME280_pressure;Samples;Min_cycle;Max_cycle;Signal;HPM_P1;HPM_P2
2021/04/06 00:00:47;;;;;;;4.83;2.53;;;-1.00;99.90;;;-0.57;41.18;93962.28;5040322;28;20688;-68
2021/04/06 00:03:19;;;;;;;5.80;2.17;;;-1.00;99.90;;;-0.84;41.26;93965.78;5056367;28;20190;-69
2021/04/06 00:05:50;;;;;;;4.10;2.37;;;-1.20;99.90;;;-0.77;41.42;93958.81;5056216;28;20254;-68
2021/04/06 00:08:17;;;;;;;5.07;2.30;;;-1.20;99.90;;;-0.67;41.65;93968.88;5040231;28;20191;-68
2021/04/06 00:10:48;;;;;;;5.50;1.90;;;-1.20;99.90;;;-0.65;41.60;93974.69;5040050;28;20751;-69
2021/04/06 00:13:26;;;;;;;4.33;1.90;;;-1.10;99.90;;;-0.72;41.65;93951.25;5056657;28;20600;-68
2021/04/06 00:15:53;;;;;;;3.07;2.00;;;-1.20;99.90;;;-0.62;41.68;93969.88;5040196;28;20212;-69
2021/04/06 00:18:21;;;;;;;5.60;2.10;;;-1.10;99.90;;;-0.72;41.64;93948.63;5039579;28;20196;-70
2021/04/06 00:20:48;;;;;;;6.23;1.90;;;-1.10;99.90;;;-0.73;41.79;93948.81;5073002;28;20177;-69
2021/04/06 00:23:15;;;;;;;4.37;1.93;;;-1.20;99.90;;;-0.73;42.04;93957.44;5074716;28;20157;-69
2021/04/06 00:25:48;;;;;;;5.03;2.03;;;-1.20;99.90;;;-0.53;41.86;93966.09;5039846;28;20189;-68
2021/04/06 00:28:31;;;;;;;3.53;1.80;;;-1.10;99.90;;;-0.77;42.00;93958.03;5040234;28;20519;-68
2021/04/06 00:31:00;;;;;;;3.43;1.83;;;-1.20;99.90;;;-0.74;42.30;93958.41;5056509;28;20348;-70
2021/04/06 00:33:31;;;;;;;4.00;1.50;;;-1.20;99.90;;;-0.73;41.65;93965.22;5022440;28;20734;-69
2021/04/06 00:36:02;;;;;;;3.93;1.80;;;-1.20;99.90;;;-0.83;42.39;93953.56;5056340;28;20678;-69
2021/04/06 00:38:33;;;;;;;2.87;1.70;;;-1.20;99.90;;;-0.80;42.33;93967.00;5039845;28;20179;-69
2021/04/06 00:41:07;;;;;;;4.40;2.00;;;-1.30;99.90;;;-0.88;41.73;93940.38;5056224;28;20633;-69
2021/04/06 00:43:42;;;;;;;4.03;2.33;;;-1.30;99.90;;;-0.78;42.45;93949.41;5039884;28;20183;-70
2021/04/06 00:46:17;;;;;;;5.03;1.90;;;-1.30;99.90;;;-0.69;42.70;93965.66;5040016;28;20190;-69
2021/04/06 00:48:54;;;;;;;5.03;2.27;;;-1.20;99.90;;;-0.62;42.12;93964.69;5052433;28;20189;-69
2021/04/06 00:51:20;;;;;;;3.67;2.10;;;-1.10;99.90;;;-0.63;42.64;93959.66;5056157;28;20195;-69
2021/04/06 00:54:02;;;;;;;2.90;2.00;;;-1.10;99.90;;;-0.62;43.14;93964.69;5056125;28;20267;-69
2021/04/06 00:56:34;;;;;;;2.73;1.83;;;-1.10;99.90;;;-0.65;42.98;93957.28;5038110;28;20199;-70
2021/04/06 00:59:11;;;;;;;4.07;1.90;;;-1.10;99.90;;;-0.45;42.83;93961.72;5056279;28;20155;-70
2021/04/06 01:01:44;;;;;;;5.23;2.07;;;-0.90;99.90;;;-0.42;42.83;93961.34;5055312;28;20638;-69
2021/04/06 01:04:13;;;;;;;3.33;1.97;;;-0.80;99.90;;;-0.38;42.78;93957.34;5052839;28;20282;-70
2021/04/06 01:07:14;;;;;;;4.43;2.00;;;-0.90;99.90;;;-0.75;43.20;93956.03;5019087;28;20182;-70
2021/04/06 01:10:10;;;;;;;2.87;1.70;;;-1.10;99.90;;;-0.79;43.14;93960.00;5053860;28;20164;-70
2021/04/06 01:12:38;;;;;;;4.20;1.80;;;-1.20;99.90;;;-0.79;43.28;93939.19;4978415;28;20763;-69
2021/04/06 01:15:10;;;;;;;2.57;1.40;;;-1.20;99.90;;;-0.95;43.29;93944.72;4995059;28;20332;-70
2021/04/06 01:17:37;;;;;;;3.37;1.70;;;-1.30;99.90;;;-1.22;43.64;93962.00;4978581;28;20246;-69
2021/04/06 01:20:15;;;;;;;3.67;1.83;;;-1.60;99.90;;;-1.26;43.35;93974.56;4994944;28;20178;-70
2021/04/06 01:22:44;;;;;;;4.10;2.03;;;-1.70;99.90;;;-1.35;43.61;93957.53;5011466;28;20741;-69
2021/04/06 01:25:23;;;;;;;3.00;1.70;;;-1.80;99.90;;;-1.32;43.60;93959.75;5011254;28;20165;-69
2021/04/06 01:27:56;;;;;;;4.70;2.10;;;-1.80;99.90;;;-1.39;43.56;93966.69;4994864;28;20174;-69
2021/04/06 01:30:23;;;;;;;5.07;1.97;;;-1.90;99.90;;;-1.48;43.41;93970.44;4994525;28;20717;-69
2021/04/06 01:32:53;;;;;;;3.37;1.77;;;-1.90;99.90;;;-1.37;43.77;93966.47;4993047;28;20289;-70
2021/04/06 01:35:19;;;;;;;3.07;1.73;;;-1.80;99.90;;;-1.37;43.46;93975.09;4994789;28;20683;-69
2021/04/06 01:37:46;;;;;;;2.83;2.00;;;-1.80;99.90;;;-1.48;43.32;93957.44;4994941;28;20215;-69
2021/04/06 01:40:15;;;;;;;2.80;1.77;;;-1.90;99.90;;;-1.62;43.31;93951.34;4994444;28;20181;-69
2021/04/06 01:42:42;;;;;;;3.33;1.73;;;-2.00;99.90;;;-1.67;43.33;93961.50;4994506;28;20233;-69
2021/04/06 01:45:18;;;;;;;4.23;1.90;;;-2.20;99.90;;;-1.65;43.16;93959.53;4978425;28;20176;-69
2021/04/06 01:47:44;;;;;;;3.03;1.63;;;-2.20;99.90;;;-1.73;43.71;93951.06;4994223;28;20517;-69
2021/04/06 01:50:12;;;;;;;3.00;1.30;;;-2.30;99.90;;;-1.80;43.45;93956.19;5021350;28;20521;-69
2021/04/06 01:52:39;;;;;;;2.40;1.30;;;-2.30;99.90;;;-1.85;43.71;93940.41;5050981;28;20234;-68
2021/04/06 01:55:14;;;;;;;2.77;1.30;;;-2.30;99.90;;;-1.87;43.43;93941.56;5017885;28;20169;-70
2021/04/06 01:57:44;;;;;;;4.60;1.37;;;-2.40;99.90;;;-1.78;43.38;93941.22;5035391;28;20199;-69
2021/04/06 02:00:26;;;;;;;2.93;1.20;;;-2.30;99.90;;;-1.72;44.03;93929.28;5034854;28;20660;-69
2021/04/06 02:02:52;;;;;;;4.10;1.30;;;-2.30;99.90;;;-1.86;44.00;93925.00;5068482;28;20183;-68
2021/04/06 02:05:20;;;;;;;3.43;1.10;;;-2.40;99.90;;;-1.89;43.76;93930.56;5037315;28;20175;-68
2021/04/06 02:07:48;;;;;;;2.67;1.57;;;-2.40;99.90;;;-1.89;43.99;93931.38;5054002;28;20192;-68
2021/04/06 02:10:15;;;;;;;3.23;1.30;;;-2.40;99.90;;;-1.93;44.25;93919.75;5053962;28;20214;-69
2021/04/06 02:12:47;;;;;;;1.30;1.00;;;-2.40;99.90;;;-1.99;43.85;93933.47;5044501;28;20182;-69
2021/04/06 02:15:21;;;;;;;4.20;1.17;;;-2.50;99.90;;;-1.93;43.96;93918.94;5037994;28;20603;-69
2021/04/06 02:17:51;;;;;;;2.87;1.10;;;-2.40;99.90;;;-1.91;44.30;93922.94;5018386;28;20222;-69
2021/04/06 02:20:26;;;;;;;1.17;0.93;;;-2.40;99.90;;;-1.93;44.31;93913.75;5034444;28;20624;-68
2021/04/06 02:23:03;;;;;;;1.63;0.90;;;-2.40;99.90;;;-1.96;44.15;93914.94;5052527;28;20609;-69
2021/04/06 02:25:30;;;;;;;1.77;1.07;;;-2.40;99.90;;;-1.98;44.11;93926.50;5017874;28;20242;-69
2021/04/06 02:27:57;;;;;;;3.30;1.00;;;-2.50;99.90;;;-1.87;44.47;93924.19;5034436;28;20512;-69
2021/04/06 02:30:30;;;;;;;3.37;1.20;;;-2.40;99.90;;;-1.83;44.41;93915.03;5018048;28;20214;-69
2021/04/06 02:33:02;;;;;;;2.30;1.53;;;-2.30;99.90;;;-1.75;44.50;93927.06;5054698;28;20186;-69
2021/04/06 02:35:28;;;;;;;4.50;1.23;;;-2.30;99.90;;;-1.63;44.58;93925.56;5054097;28;20719;-68
2021/04/06 02:37:56;;;;;;;2.83;1.20;;;-2.20;99.90;;;-1.57;44.90;93922.19;5072332;28;20558;-69
2021/04/06 02:40:25;;;;;;;2.00;1.27;;;-2.10;99.90;;;-1.47;44.68;93917.47;5021244;28;20187;-68
2021/04/06 02:42:56;;;;;;;4.07;1.30;;;-2.00;99.90;;;-1.50;44.55;93924.81;5037608;28;20176;-69
2021/04/06 02:45:29;;;;;;;2.27;1.10;;;-1.90;99.90;;;-1.40;44.83;93920.91;5036769;28;20180;-70
2021/04/06 02:48:06;;;;;;;1.13;1.03;;;-1.90;99.90;;;-1.33;44.67;93931.34;5042856;28;20180;-69
2021/04/06 02:50:35;;;;;;;3.43;1.23;;;-1.80;99.90;;;-1.20;45.01;93928.81;5053759;28;20163;-69
2021/04/06 02:53:09;;;;;;;2.30;1.13;;;-1.70;99.90;;;-1.25;45.19;93920.78;5034231;28;20165;-69
2021/04/06 02:55:36;;;;;;;3.30;1.70;;;-1.70;99.90;;;-1.41;44.77;93921.88;5017171;28;20198;-68
2021/04/06 02:58:16;;;;;;;2.40;1.13;;;-1.80;99.90;;;-1.48;44.69;93923.66;5034268;28;20522;-70
2021/04/06 03:00:42;;;;;;;2.17;1.40;;;-1.90;99.90;;;-1.54;45.02;93919.22;5039252;28;20202;-69
2021/04/06 03:03:25;;;;;;;1.80;1.30;;;-1.90;99.90;;;-1.87;44.89;93929.38;5071295;28;20586;-69
2021/04/06 03:06:07;;;;;;;3.30;1.50;;;-2.20;99.90;;;-2.05;44.76;93931.66;5037315;28;20679;-70
2021/04/06 03:08:39;;;;;;;3.77;1.60;;;-2.30;99.90;;;-2.04;44.84;93916.84;5037539;28;20254;-69
2021/04/06 03:11:11;;;;;;;3.23;1.43;;;-2.40;99.90;;;-2.23;44.95;93924.28;5033811;28;20643;-68
2021/04/06 03:13:43;;;;;;;5.33;1.67;;;-2.50;99.90;;;-2.40;45.45;93917.75;5053521;28;20639;-69
2021/04/06 03:16:11;;;;;;;2.83;1.50;;;-2.70;99.90;;;-2.75;45.17;93914.19;5025918;28;20207;-69
2021/04/06 03:18:40;;;;;;;2.73;1.50;;;-2.90;99.90;;;-2.90;45.34;93928.19;5034881;28;20710;-69
2021/04/06 03:21:11;;;;;;;2.13;1.40;;;-3.10;99.90;;;-3.08;45.15;93917.41;5021628;28;20172;-69
2021/04/06 03:23:38;;;;;;;2.63;1.57;;;-3.20;99.90;;;-3.19;45.09;93918.69;5038072;28;20529;-69
2021/04/06 03:26:07;;;;;;;3.73;1.73;;;-3.40;99.90;;;-3.33;45.06;93909.13;5055487;28;20175;-69
2021/04/06 03:28:36;;;;;;;1.73;1.60;;;-3.50;99.90;;;-3.46;45.19;93922.72;5038011;28;20164;-69
2021/04/06 03:31:16;;;;;;;4.73;1.97;;;-3.70;99.90;;;-3.76;45.33;93924.47;5031511;28;20195;-69
2021/04/06 03:33:45;;;;;;;7.40;2.30;;;-3.90;99.90;;;-3.97;44.85;93908.03;5044660;28;20180;-69
2021/04/06 03:36:39;;;;;;;3.50;2.10;;;-4.20;99.90;;;-3.90;45.11;93929.66;5037603;28;20187;-68
2021/04/06 03:39:08;;;;;;;4.13;1.90;;;-4.20;99.90;;;-3.88;44.79;93936.25;5050151;28;20195;-68
2021/04/06 03:41:35;;;;;;;4.03;1.93;;;-4.20;99.90;;;-3.83;44.69;93936.50;5057401;28;20160;-69
2021/04/06 03:44:10;;;;;;;4.53;2.00;;;-4.20;99.90;;;-4.00;45.38;93926.50;5057621;28;20892;-68
2021/04/06 03:46:39;;;;;;;4.13;2.40;;;-4.30;99.90;;;-4.25;45.18;93926.72;5040027;28;20665;-68
2021/04/06 03:49:22;;;;;;;6.07;2.07;;;-4.50;99.90;;;-4.38;45.23;93931.66;5073879;28;20201;-68
2021/04/06 03:51:58;;;;;;;5.07;1.80;;;-4.60;99.90;;;-4.43;45.18;93921.03;5053998;28;20587;-68
2021/04/06 03:54:44;;;;;;;4.60;2.10;;;-4.80;99.90;;;-4.28;45.33;93939.19;5054271;28;20168;-69
2021/04/06 03:57:36;;;;;;;3.13;1.80;;;-4.70;99.90;;;-4.34;45.51;93925.19;5037366;28;20187;-68
2021/04/06 04:00:10;;;;;;;3.20;1.70;;;-4.70;99.90;;;-4.41;45.53;93926.03;5037374;28;20199;-68
2021/04/06 04:02:38;;;;;;;4.20;2.03;;;-4.80;99.90;;;-4.48;45.55;93918.19;5060321;28;20734;-68
2021/04/06 04:05:08;;;;;;;3.20;1.87;;;-4.90;99.90;;;-4.61;45.02;93927.47;5037108;28;20184;-68
2021/04/06 04:07:34;;;;;;;6.90;2.07;;;-5.00;99.90;;;-4.89;45.20;93916.81;5041433;28;20175;-69
2021/04/06 04:10:05;;;;;;;4.43;2.00;;;-5.20;99.90;;;-5.04;45.52;93913.38;5068024;28;20235;-69
2021/04/06 04:12:31;;;;;;;4.77;2.37;;;-5.30;99.90;;;-5.11;45.62;93927.94;5048895;28;20183;-68
2021/04/06 04:15:02;;;;;;;4.73;2.13;;;-5.40;99.90;;;-4.95;45.31;93922.69;5039416;28;20179;-68
2021/04/06 04:17:27;;;;;;;3.73;1.67;;;-5.40;99.90;;;-4.95;45.63;93920.09;5037007;28;20551;-68
2021/04/06 04:19:54;;;;;;;6.80;3.27;;;-5.40;99.90;;;-5.13;44.92;93916.97;5036729;28;20203;-69
2021/04/06 04:22:25;;;;;;;17.57;7.73;;;-5.50;99.90;;;-5.19;45.42;93911.50;5037120;28;20180;-68
2021/04/06 04:25:04;;;;;;;5.70;2.73;;;-5.50;99.90;;;-5.23;45.96;93920.56;5054444;28;20172;-68
2021/04/06 04:27:30;;;;;;;13.67;5.10;;;-5.60;99.90;;;-5.23;45.69;93930.09;5036622;28;20186;-68
2021/04/06 04:29:56;;;;;;;8.50;4.43;;;-5.60;99.90;;;-5.19;45.81;93929.59;5006069;28;20188;-68
2021/04/06 04:32:22;;;;;;;7.73;3.67;;;-5.60;99.90;;;-5.13;45.82;93924.72;5039630;28;20614;-68
2021/04/06 04:34:47;;;;;;;8.80;3.57;;;-5.60;99.90;;;-5.32;45.44;93936.25;5052777;28;20202;-68
2021/04/06 04:37:16;;;;;;;12.77;3.90;;;-5.70;99.90;;;-5.43;45.98;93934.84;5056332;28;20550;-68
2021/04/06 04:39:43;;;;;;;10.23;5.00;;;-5.80;99.90;;;-5.48;46.12;93946.66;5023131;28;20750;-69
2021/04/06 04:42:10;;;;;;;15.90;7.43;;;-5.90;99.90;;;-5.27;45.99;93946.91;5051362;28;20219;-70
2021/04/06 04:44:37;;;;;;;16.03;7.70;;;-5.70;99.90;;;-5.22;45.97;93937.69;5059056;28;20186;-68
2021/04/06 04:47:07;;;;;;;16.63;7.57;;;-5.70;99.90;;;-5.35;46.30;93941.75;5060555;28;20175;-68
2021/04/06 04:49:33;;;;;;;19.67;8.83;;;-5.70;99.90;;;-5.25;46.27;93942.38;5073594;28;20190;-69
2021/04/06 04:52:00;;;;;;;12.37;5.93;;;-5.70;99.90;;;-5.33;45.99;93952.72;5056095;28;20241;-69
2021/04/06 04:54:27;;;;;;;15.13;6.00;;;-5.80;99.90;;;-5.31;46.22;93945.63;5054537;28;20194;-69
2021/04/06 04:56:53;;;;;;;8.37;3.70;;;-5.80;99.90;;;-5.45;46.02;93951.47;5055292;28;20226;-68
2021/04/06 04:59:23;;;;;;;5.87;3.00;;;-5.80;99.90;;;-5.44;46.20;93951.31;5055813;28;20178;-69
2021/04/06 05:01:49;;;;;;;5.20;2.57;;;-5.80;99.90;;;-5.49;46.17;93948.44;5073309;28;20187;-69
2021/04/06 05:04:18;;;;;;;8.43;3.53;;;-5.90;99.90;;;-5.54;45.94;93945.53;5037192;28;20183;-69
2021/04/06 05:06:49;;;;;;;9.97;3.93;;;-5.90;99.90;;;-5.58;46.55;93949.44;5055814;28;20190;-68
2021/04/06 05:09:15;;;;;;;8.67;4.33;;;-6.00;99.90;;;-5.48;46.27;93960.38;5071959;28;20209;-67
2021/04/06 05:11:47;;;;;;;7.17;3.40;;;-6.00;99.90;;;-5.32;46.31;93956.91;5054156;28;20195;-68
2021/04/06 05:14:19;;;;;;;9.23;4.60;;;-5.80;99.90;;;-5.32;46.46;93965.47;5055350;28;20484;-69
2021/04/06 05:16:45;;;;;;;6.23;2.97;;;-5.80;99.90;;;-5.25;46.26;93960.44;5071154;28;20297;-68
2021/04/06 05:19:17;;;;;;;4.87;2.57;;;-5.70;99.90;;;-5.31;46.72;93955.97;5048424;28;20337;-69
2021/04/06 05:21:44;;;;;;;5.23;1.90;;;-5.70;99.90;;;-5.08;46.54;93954.25;5071084;28;20256;-69
2021/04/06 05:24:13;;;;;;;4.03;1.83;;;-5.60;99.90;;;-5.08;46.31;93946.50;5030412;28;20195;-68
2021/04/06 05:26:41;;;;;;;4.00;1.83;;;-5.50;99.90;;;-5.05;46.76;93964.22;5035146;28;20179;-68
2021/04/06 05:29:08;;;;;;;3.80;1.60;;;-5.50;99.90;;;-4.87;46.79;93972.53;5053043;28;20339;-68
2021/04/06 05:31:34;;;;;;;3.30;1.77;;;-5.40;99.90;;;-4.70;46.62;93965.50;5067845;28;20187;-68
2021/04/06 05:34:00;;;;;;;3.10;2.10;;;-5.20;99.90;;;-4.52;47.24;93960.84;5046832;28;20256;-70
2021/04/06 05:36:26;;;;;;;4.20;2.33;;;-5.00;99.90;;;-4.40;47.11;93969.81;5037858;28;20288;-69
2021/04/06 05:38:52;;;;;;;4.77;2.80;;;-4.90;99.90;;;-4.17;47.28;93973.22;5010284;28;20594;-69
2021/04/06 05:41:21;;;;;;;4.73;2.00;;;-4.70;99.90;;;-4.13;47.27;93978.03;5051711;28;20199;-70
2021/04/06 05:43:47;;;;;;;3.00;2.10;;;-4.70;99.90;;;-4.04;47.46;93967.44;5033629;28;20175;-69
2021/04/06 05:46:14;;;;;;;2.80;2.00;;;-4.50;99.90;;;-4.03;47.17;93965.69;5038402;28;20176;-68
2021/04/06 05:48:42;;;;;;;4.10;2.03;;;-4.50;99.90;;;-4.15;47.24;93980.78;5034728;28;20681;-69
2021/04/06 05:51:12;;;;;;;15.50;6.73;;;-4.60;99.90;;;-4.27;47.33;93970.06;5048352;28;20544;-69
2021/04/06 05:53:40;;;;;;;22.00;11.70;;;-4.70;99.90;;;-4.26;47.12;93961.31;5053584;28;20187;-69
2021/04/06 05:56:07;;;;;;;16.97;9.37;;;-4.70;99.90;;;-4.43;47.34;93967.56;5028262;28;20218;-69
2021/04/06 05:58:33;;;;;;;14.50;7.03;;;-4.90;99.90;;;-4.25;47.30;93959.53;5051530;28;20535;-69
2021/04/06 06:01:00;;;;;;;10.97;4.40;;;-4.70;99.90;;;-4.45;47.60;93960.97;5031724;28;20201;-70
2021/04/06 06:03:28;;;;;;;9.17;3.70;;;-4.90;99.90;;;-4.25;47.14;93980.22;5045955;28;20203;-70
2021/04/06 06:05:54;;;;;;;7.70;3.50;;;-4.80;99.90;;;-3.96;47.62;93974.34;5050737;28;20195;-68
2021/04/06 06:08:20;;;;;;;6.13;3.77;;;-4.60;99.90;;;-3.79;47.87;93981.78;5048699;28;20253;-68
2021/04/06 06:10:46;;;;;;;8.07;3.47;;;-4.30;99.90;;;-3.58;47.32;93981.09;5017664;28;20191;-69
2021/04/06 06:13:20;;;;;;;6.60;3.87;;;-4.20;99.90;;;-3.36;47.63;93967.28;5033209;28;20195;-68
2021/04/06 06:16:07;;;;;;;5.00;3.47;;;-3.90;99.90;;;-3.13;47.82;93982.75;5036834;28;20195;-70
2021/04/06 06:18:56;;;;;;;7.47;3.80;;;-3.70;99.90;;;-2.89;47.81;93979.88;5044571;28;20568;-69
2021/04/06 06:21:56;;;;;;;11.40;4.33;;;-3.50;99.90;;;-2.58;48.21;93981.41;5064189;28;20259;-69
2021/04/06 06:24:31;;;;;;;11.73;5.30;;;-3.20;99.90;;;-2.26;48.35;93978.34;5046496;28;20977;-71
2021/04/06 06:26:58;;;;;;;6.37;3.70;;;-2.80;99.90;;;-0.68;48.43;94034.91;5028836;28;20229;-69
2021/04/06 06:29:33;;;;;;;7.13;3.10;;;-1.60;99.90;;;2.10;48.53;94017.97;5046415;28;20236;-72
2021/04/06 06:32:04;;;;;;;4.43;3.03;;;1.10;99.90;;;4.04;49.00;93975.44;5034997;28;20281;-72
2021/04/06 06:34:36;;;;;;;5.20;3.40;;;3.60;99.90;;;3.93;49.57;93938.69;5017060;28;20463;-71
2021/04/06 06:37:10;;;;;;;4.97;3.10;;;4.50;99.90;;;3.46;48.63;93945.53;5053890;28;20700;-72
2021/04/06 06:39:52;;;;;;;9.47;5.90;;;4.20;99.90;;;2.94;48.58;93941.69;5041692;28;20526;-69
2021/04/06 06:42:38;;;;;;;5.17;4.30;;;3.90;99.90;;;2.55;48.68;93935.00;5063621;28;20188;-71
2021/04/06 06:45:22;;;;;;;7.60;5.70;;;3.50;99.90;;;2.57;49.17;93961.75;5034799;28;20655;-70
2021/04/06 06:47:56;;;;;;;10.10;6.10;;;3.20;99.90;;;2.43;48.36;93968.09;5046068;28;20262;-71
2021/04/06 06:50:26;;;;;;;10.30;6.80;;;3.00;99.90;;;2.61;48.58;93960.31;5051253;28;20183;-73
2021/04/06 06:52:59;;;;;;;8.37;5.67;;;3.10;99.90;;;2.74;48.67;93965.41;5050652;28;20178;-68
2021/04/06 06:55:26;;;;;;;10.50;6.47;;;3.20;99.90;;;2.95;49.04;93954.56;5051653;28;20192;-69
2021/04/06 06:58:06;;;;;;;12.77;7.70;;;3.30;99.90;;;2.86;48.46;93975.97;5051490;28;20200;-69
2021/04/06 07:00:35;;;;;;;16.73;10.30;;;3.30;99.90;;;2.95;48.27;93959.81;5069322;28;20190;-70
2021/04/06 07:03:11;;;;;;;20.03;12.07;;;3.30;99.90;;;2.89;48.79;93954.59;5049942;28;21644;-71
2021/04/06 07:05:37;;;;;;;10.17;6.30;;;3.20;99.90;;;2.79;48.59;93965.56;5029065;28;20185;-69
2021/04/06 07:08:05;;;;;;;7.60;4.80;;;3.20;99.90;;;2.57;49.19;93964.34;5032980;28;20499;-70
2021/04/06 07:10:43;;;;;;;6.43;4.53;;;3.20;99.90;;;2.93;48.53;93967.03;5051280;28;20735;-71
2021/04/06 07:13:20;;;;;;;9.63;5.87;;;3.40;99.90;;;3.09;49.57;93981.38;5048638;28;20263;-70
2021/04/06 07:15:51;;;;;;;8.97;4.50;;;3.50;99.90;;;3.49;48.83;93977.31;5034383;28;20183;-69
2021/04/06 07:18:20;;;;;;;6.53;3.73;;;3.90;99.90;;;3.83;48.70;93978.53;5034714;28;20646;-70
2021/04/06 07:20:56;;;;;;;9.07;4.40;;;4.20;99.90;;;4.34;48.79;93982.47;5030451;28;20212;-70
2021/04/06 07:24:00;;;;;;;5.70;4.20;;;4.70;99.90;;;4.69;49.49;93991.25;5049610;28;20186;-69
2021/04/06 07:26:30;;;;;;;5.57;3.40;;;5.30;99.90;;;5.25;48.91;93982.00;5031558;28;20296;-69
2021/04/06 07:29:00;;;;;;;8.13;3.90;;;5.80;99.90;;;6.45;49.20;94007.34;5031718;28;20193;-68
2021/04/06 07:31:31;;;;;;;5.03;3.07;;;6.80;99.90;;;8.54;49.82;94025.91;5051471;28;20191;-68
2021/04/06 07:33:59;;;;;;;3.43;2.50;;;8.50;99.90;;;10.92;49.68;94030.78;5051602;28;20236;-70
2021/04/06 07:36:27;;;;;;;3.70;2.20;;;10.80;99.90;;;14.30;49.58;94050.59;5064293;28;20203;-70
2021/04/06 07:39:14;;;;;;;11.20;6.43;;;14.50;94.30;;;16.72;50.02;94013.97;5039918;28;20216;-73
2021/04/06 07:41:47;;;;;;;3.37;1.87;;;17.60;80.00;;;16.88;49.95;93894.75;5033927;28;20277;-72
2021/04/06 07:44:15;;;;;;;4.27;1.93;;;19.30;66.60;;;16.17;49.50;93952.44;5062987;28;20258;-70
2021/04/06 07:46:42;;;;;;;2.63;1.90;;;19.00;64.90;;;16.24;49.49;93864.59;5044282;28;20187;-74
2021/04/06 07:49:20;;;;;;;2.63;1.90;;;19.10;60.10;;;14.69;49.09;93901.00;5050381;28;20183;-73
2021/04/06 07:51:46;;;;;;;2.70;1.70;;;17.70;61.90;;;16.12;49.04;94007.88;5048237;28;20191;-72
2021/04/06 07:54:19;;;;;;;3.73;1.80;;;17.90;61.80;;;17.66;48.96;93923.66;5051022;28;20167;-69
2021/04/06 07:57:07;;;;;;;1.77;1.57;;;19.30;59.50;;;19.86;48.66;94040.28;5029574;28;20747;-69
2021/04/06 07:59:33;;;;;;;3.33;1.60;;;21.40;55.60;;;19.75;48.40;93918.00;5034745;28;20313;-68
2021/04/06 08:02:01;;;;;;;2.43;1.50;;;22.50;53.50;;;21.62;48.11;93948.78;5067382;28;20217;-72
2021/04/06 08:04:49;;;;;;;1.60;1.33;;;24.40;49.70;;;22.05;47.94;94015.84;5063751;28;20187;-72
2021/04/06 08:07:21;;;;;;;2.10;1.40;;;24.80;48.90;;;23.04;47.93;93940.72;5063273;28;20253;-71
2021/04/06 08:09:49;;;;;;;2.30;1.80;;;26.50;46.70;;;23.65;47.30;93930.53;5056558;28;20194;-72
2021/04/06 08:12:35;;;;;;;2.37;1.50;;;27.50;45.70;;;24.10;47.20;93980.84;5056313;28;20282;-69
2021/04/06 08:15:11;;;;;;;4.00;1.50;;;28.50;44.10;;;23.87;46.83;93873.09;5064291;28;20190;-71
2021/04/06 08:17:57;;;;;;;1.60;1.27;;;28.40;42.10;;;23.74;46.67;93943.94;5039896;28;20332;-73
2021/04/06 08:20:41;;;;;;;2.13;1.47;;;28.80;42.10;;;24.80;46.04;94011.72;5040058;28;20186;-73
2021/04/06 08:23:14;;;;;;;2.75;1.80;;;29.50;41.70;;;22.86;45.70;93958.34;5038701;28;20855;-70
2021/04/06 08:25:46;;;;;;;2.70;1.90;;;29.70;40.90;;;22.70;45.58;93806.09;5038511;28;20171;-70
2021/04/06 08:28:34;;;;;;;3.57;1.77;;;29.20;40.70;;;20.71;45.52;93948.81;5032186;28;20274;-70
2021/04/06 08:31:29;;;;;;;3.13;1.70;;;26.10;42.20;;;18.98;45.14;93923.44;5048792;28;20262;-70
2021/04/06 08:34:33;;;;;;;3.60;2.60;;;24.50;45.00;;;16.30;44.96;93908.06;5054627;28;20235;-70
2021/04/06 08:37:13;;;;;;;5.30;2.20;;;21.80;47.80;;;14.55;44.74;93906.28;5054288;28;20274;-69
2021/04/06 08:39:40;;;;;;;3.80;2.03;;;18.50;52.10;;;14.97;44.55;93963.31;5050038;28;20207;-72
2021/04/06 08:42:14;;;;;;;2.70;1.97;;;17.70;54.10;;;16.05;44.48;93927.28;5033732;28;20188;-73
2021/04/06 08:44:43;;;;;;;4.10;2.20;;;17.80;55.10;;;16.27;44.50;93912.13;5049044;28;20175;-71
2021/04/06 08:47:55;;;;;;;4.17;2.50;;;18.50;54.90;;;14.95;44.32;93973.47;5046555;28;20434;-72
2021/04/06 08:50:36;;;;;;;4.57;2.30;;;18.40;55.30;;;14.83;43.89;93905.34;5052138;28;20496;-72
2021/04/06 08:53:05;;;;;;;3.43;2.30;;;18.20;53.80;;;13.56;44.08;93878.72;5070336;28;20212;-73
2021/04/06 08:55:33;;;;;;;3.97;2.03;;;16.90;55.20;;;11.76;43.82;93866.47;5049539;28;20171;-71
2021/04/06 08:58:01;;;;;;;3.50;2.50;;;15.00;58.10;;;11.01;43.42;93939.06;5034254;28;20183;-71
2021/04/06 09:00:29;;;;;;;4.80;2.42;;;13.60;62.10;;;12.51;43.27;93970.81;5049927;28;20437;-71
2021/04/06 09:03:08;;;;;;;6.10;2.45;;;14.40;61.20;;;16.12;43.94;94035.41;5066886;28;20805;-68
2021/04/06 09:05:34;;;;;;;4.37;2.27;;;17.50;55.20;;;19.38;43.96;94026.97;5044943;28;20241;-71
2021/04/06 09:08:02;;;;;;;2.93;2.30;;;20.50;49.80;;;20.66;43.89;93944.38;5062893;28;20211;-74
2021/04/06 09:10:38;;;;;;;3.87;1.57;;;22.30;47.70;;;21.69;43.20;93953.63;5052632;28;20213;-69
2021/04/06 09:13:06;;;;;;;2.43;1.93;;;24.30;45.20;;;22.16;43.44;93902.81;5048495;28;20167;-69
2021/04/06 09:15:32;;;;;;;4.97;2.00;;;25.00;42.80;;;22.17;43.44;93924.06;5050818;28;20179;-71
2021/04/06 09:18:04;;;;;;;3.07;2.07;;;25.80;42.10;;;22.95;42.89;93884.09;5038953;28;20203;-69
2021/04/06 09:20:37;;;;;;;2.70;1.93;;;27.00;41.00;;;22.77;43.04;93939.53;5034769;28;20543;-70
2021/04/06 09:23:06;;;;;;;2.50;1.60;;;26.50;39.60;;;21.83;42.58;93803.78;5067936;28;20590;-70
2021/04/06 09:25:33;;;;;;;3.47;1.80;;;25.70;40.80;;;22.55;42.18;93949.97;5054843;28;20185;-71
2021/04/06 09:28:02;;;;;;;2.37;1.80;;;25.60;39.00;;;22.84;42.04;93893.00;5054841;28;20272;-68
2021/04/06 09:30:34;;;;;;;2.50;1.70;;;26.50;38.40;;;22.07;42.43;93800.31;5020026;28;20172;-69
2021/04/06 09:33:04;;;;;;;2.50;1.60;;;25.50;39.50;;;22.47;41.87;93868.69;5044239;28;20415;-72
2021/04/06 09:35:30;;;;;;;3.67;1.60;;;25.40;38.60;;;21.98;41.82;93859.03;5027008;28;20180;-73
2021/04/06 09:37:59;;;;;;;2.37;1.53;;;24.80;39.10;;;23.32;41.67;93909.09;5037174;28;20216;-81
2021/04/06 09:40:35;;;;;;;5.30;1.40;;;26.10;38.20;;;23.32;41.37;93860.41;5069069;28;20191;-71
2021/04/06 09:43:02;;;;;;;2.20;1.40;;;26.60;36.60;;;23.53;41.05;93883.78;5032651;28;20214;-71
2021/04/06 09:45:29;;;;;;;1.63;0.93;;;27.40;36.50;;;23.71;40.73;93860.69;5050552;28;20189;-68
2021/04/06 09:47:56;;;;;;;2.07;1.07;;;27.90;35.20;;;25.19;40.39;93899.47;5052477;28;20191;-70
2021/04/06 09:50:26;;;;;;;3.30;1.10;;;29.10;34.20;;;24.67;40.26;93823.16;5045083;28;20278;-72
2021/04/06 09:52:54;;;;;;;2.83;1.10;;;29.90;34.70;;;25.91;39.69;93965.75;5047282;28;20286;-71
2021/04/06 09:55:22;;;;;;;3.07;1.10;;;30.20;31.50;;;25.14;39.69;93825.72;5051244;28;20700;-70
2021/04/06 09:57:53;;;;;;;1.60;0.90;;;29.90;33.30;;;25.12;39.71;93871.41;5052718;28;20179;-72
2021/04/06 10:00:27;;;;;;;1.53;0.90;;;28.60;31.10;;;24.25;39.08;93864.41;5051445;28;20808;-71
2021/04/06 10:03:17;;;;;;;2.73;0.93;;;27.20;32.30;;;22.08;39.18;93782.22;5049775;28;20659;-72
2021/04/06 10:05:50;;;;;;;2.03;0.93;;;25.70;35.20;;;19.60;38.72;93797.50;5049513;28;20183;-72
2021/04/06 10:08:29;;;;;;;1.87;0.90;;;23.10;37.30;;;17.31;38.40;93828.88;5037260;28;20266;-70
2021/04/06 10:11:02;;;;;;;3.40;1.03;;;20.50;39.00;;;16.33;38.03;93892.19;5036508;28;20170;-72
2021/04/06 10:13:31;;;;;;;2.97;0.90;;;18.40;41.60;;;17.97;38.18;93946.97;5037809;28;20822;-72
2021/04/06 10:16:12;;;;;;;2.03;1.03;;;18.80;42.30;;;19.43;38.22;93880.91;5021895;28;20197;-71
2021/04/06 10:18:46;;;;;;;2.13;0.83;;;20.20;40.10;;;20.83;38.21;93908.47;5053965;28;20725;-71
2021/04/06 10:21:17;;;;;;;2.20;1.00;;;21.60;38.30;;;21.52;37.92;93852.09;5050632;28;20561;-70
2021/04/06 10:23:43;;;;;;;1.98;0.90;;;23.00;38.60;;;21.44;37.64;93834.88;5017430;28;20787;-71
2021/04/06 10:26:24;;;;;;;2.90;1.10;;;24.90;38.30;;;21.62;37.55;93918.31;5045261;28;20211;-71
2021/04/06 10:29:14;;;;;;;2.07;0.90;;;25.50;35.70;;;23.31;37.25;93894.00;5035657;28;20179;-71
2021/04/06 10:31:52;;;;;;;1.30;0.97;;;27.20;34.60;;;23.82;37.36;93831.97;5046919;28;20167;-69
2021/04/06 10:34:18;;;;;;;2.53;1.10;;;27.40;34.90;;;23.45;37.22;93913.38;5053659;28;20175;-71
2021/04/06 10:37:08;;;;;;;3.50;1.30;;;26.70;34.40;;;23.70;37.04;93943.03;5034076;28;20176;-71
2021/04/06 10:39:38;;;;;;;1.90;0.97;;;26.80;35.20;;;24.40;36.63;93900.75;5045970;28;20176;-70
2021/04/06 10:42:13;;;;;;;1.67;1.07;;;27.60;34.20;;;23.96;36.71;93827.72;5033994;28;20698;-70